sensor_id;sensor_type;location;lat;lon;timestamp;temperature;humidity
17992;DHT22;9121;50.926;5.340;2023-04-24T00:00:45;10.40;54.30
17992;DHT22;9121;50.926;5.340;2023-04-24T00:03:12;10.40;59.70
17992;DHT22;9121;50.926;5.340;2023-04-24T00:05:39;10.30;61.00
17992;DHT22;9121;50.926;5.340;2023-04-24T00:08:06;10.30;64.90
17992;DHT22;9121;50.926;5.340;2023-04-24T00:10:35;10.30;68.60
17992;DHT22;9121;50.926;5.340;2023-04-24T00:13:02;10.40;66.90
17992;DHT22;9121;50.926;5.340;2023-04-24T00:15:29;10.30;65.60
17992;DHT22;9121;50.926;5.340;2023-04-24T00:17:56;10.30;69.50
17992;DHT22;9121;50.926;5.340;2023-04-24T00:20:23;10.30;68.10
17992;DHT22;9121;50.926;5.340;2023-04-24T00:22:50;10.30;70.90
17992;DHT22;9121;50.926;5.340;2023-04-24T00:25:17;10.30;68.40
17992;DHT22;9121;50.926;5.340;2023-04-24T00:27:45;10.40;70.70
17992;DHT22;9121;50.926;5.340;2023-04-24T00:30:12;10.40;64.20
17992;DHT22;9121;50.926;5.340;2023-04-24T00:32:39;10.30;68.80
17992;DHT22;9121;50.926;5.340;2023-04-24T00:35:07;10.30;67.40
17992;DHT22;9121;50.926;5.340;2023-04-24T00:37:33;10.30;71.00
17992;DHT22;9121;50.926;5.340;2023-04-24T00:40:01;10.30;72.70
17992;DHT22;9121;50.926;5.340;2023-04-24T00:42:29;10.30;73.00
17992;DHT22;9121;50.926;5.340;2023-04-24T00:44:57;10.30;75.00
17992;DHT22;9121;50.926;5.340;2023-04-24T00:47:25;10.20;76.00
17992;DHT22;9121;50.926;5.340;2023-04-24T00:49:52;10.20;80.20
17992;DHT22;9121;50.926;5.340;2023-04-24T00:52:19;10.20;78.60
17992;DHT22;9121;50.926;5.340;2023-04-24T00:54:46;10.20;82.00
17992;DHT22;9121;50.926;5.340;2023-04-24T00:57:14;10.30;80.10
17992;DHT22;9121;50.926;5.340;2023-04-24T00:59:41;10.20;79.60
17992;DHT22;9121;50.926;5.340;2023-04-24T01:02:11;10.20;79.70
17992;DHT22;9121;50.926;5.340;2023-04-24T01:04:38;10.20;80.50
17992;DHT22;9121;50.926;5.340;2023-04-24T01:07:05;10.20;81.00
17992;DHT22;9121;50.926;5.340;2023-04-24T01:09:36;10.20;83.70
17992;DHT22;9121;50.926;5.340;2023-04-24T01:12:03;10.20;82.30
17992;DHT22;9121;50.926;5.340;2023-04-24T01:14:31;10.20;84.60
17992;DHT22;9121;50.926;5.340;2023-04-24T01:16:58;10.20;81.40
17992;DHT22;9121;50.926;5.340;2023-04-24T01:19:27;10.20;85.70
17992;DHT22;9121;50.926;5.340;2023-04-24T01:21:58;10.20;88.20
17992;DHT22;9121;50.926;5.340;2023-04-24T01:24:29;10.20;87.90
17992;DHT22;9121;50.926;5.340;2023-04-24T01:26:56;10.20;84.00
17992;DHT22;9121;50.926;5.340;2023-04-24T01:29:23;10.20;86.90
17992;DHT22;9121;50.926;5.340;2023-04-24T01:31:51;10.20;82.70
17992;DHT22;9121;50.926;5.340;2023-04-24T01:34:18;10.20;86.20
17992;DHT22;9121;50.926;5.340;2023-04-24T01:36:46;10.20;86.80
17992;DHT22;9121;50.926;5.340;2023-04-24T01:39:13;10.20;86.40
17992;DHT22;9121;50.926;5.340;2023-04-24T01:41:42;10.10;86.20
17992;DHT22;9121;50.926;5.340;2023-04-24T01:44:09;10.20;87.90
17992;DHT22;9121;50.926;5.340;2023-04-24T01:46:36;10.20;86.10
17992;DHT22;9121;50.926;5.340;2023-04-24T01:49:04;10.20;81.50
17992;DHT22;9121;50.926;5.340;2023-04-24T01:51:31;10.20;82.40
17992;DHT22;9121;50.926;5.340;2023-04-24T01:53:58;10.20;82.60
17992;DHT22;9121;50.926;5.340;2023-04-24T01:56:25;10.20;82.40
17992;DHT22;9121;50.926;5.340;2023-04-24T01:58:57;10.20;81.60
17992;DHT22;9121;50.926;5.340;2023-04-24T02:01:24;10.20;83.10
17992;DHT22;9121;50.926;5.340;2023-04-24T02:03:51;10.10;89.40
17992;DHT22;9121;50.926;5.340;2023-04-24T02:06:18;10.10;92.60
17992;DHT22;9121;50.926;5.340;2023-04-24T02:08:45;10.00;95.40
17992;DHT22;9121;50.926;5.340;2023-04-24T02:11:12;10.00;99.90
17992;DHT22;9121;50.926;5.340;2023-04-24T02:13:38;9.70;99.90
17992;DHT22;9121;50.926;5.340;2023-04-24T02:16:07;9.40;99.90
17992;DHT22;9121;50.926;5.340;2023-04-24T02:18:34;9.30;99.90
17992;DHT22;9121;50.926;5.340;2023-04-24T02:21:00;9.20;99.90
17992;DHT22;9121;50.926;5.340;2023-04-24T02:23:27;9.20;99.90
17992;DHT22;9121;50.926;5.340;2023-04-24T02:25:54;9.20;99.90
17992;DHT22;9121;50.926;5.340;2023-04-24T02:28:21;9.20;99.90
17992;DHT22;9121;50.926;5.340;2023-04-24T02:30:48;9.30;99.90
17992;DHT22;9121;50.926;5.340;2023-04-24T02:33:17;9.40;99.90
17992;DHT22;9121;50.926;5.340;2023-04-24T02:35:44;9.40;99.90
17992;DHT22;9121;50.926;5.340;2023-04-24T02:38:11;9.50;99.90
17992;DHT22;9121;50.926;5.340;2023-04-24T02:40:38;9.50;99.90
17992;DHT22;9121;50.926;5.340;2023-04-24T02:43:05;9.50;99.90
17992;DHT22;9121;50.926;5.340;2023-04-24T02:45:32;9.40;99.90
17992;DHT22;9121;50.926;5.340;2023-04-24T02:48:00;9.30;99.90
17992;DHT22;9121;50.926;5.340;2023-04-24T02:50:28;9.40;99.90
17992;DHT22;9121;50.926;5.340;2023-04-24T02:52:55;9.40;99.90
17992;DHT22;9121;50.926;5.340;2023-04-24T02:55:22;9.40;99.90
17992;DHT22;9121;50.926;5.340;2023-04-24T02:57:49;9.30;99.90
17992;DHT22;9121;50.926;5.340;2023-04-24T03:00:16;9.40;99.90
17992;DHT22;9121;50.926;5.340;2023-04-24T03:02:43;9.30;99.90
17992;DHT22;9121;50.926;5.340;2023-04-24T03:05:10;9.40;99.90
17992;DHT22;9121;50.926;5.340;2023-04-24T03:07:38;9.40;99.90
17992;DHT22;9121;50.926;5.340;2023-04-24T03:10:07;9.30;99.90
17992;DHT22;9121;50.926;5.340;2023-04-24T03:12:34;9.20;99.90
17992;DHT22;9121;50.926;5.340;2023-04-24T03:15:01;9.20;99.90
17992;DHT22;9121;50.926;5.340;2023-04-24T03:17:28;9.20;99.90
17992;DHT22;9121;50.926;5.340;2023-04-24T03:19:54;9.20;99.90
17992;DHT22;9121;50.926;5.340;2023-04-24T03:22:21;9.20;99.90
17992;DHT22;9121;50.926;5.340;2023-04-24T03:24:50;9.30;99.90
17992;DHT22;9121;50.926;5.340;2023-04-24T03:27:16;9.30;99.90
17992;DHT22;9121;50.926;5.340;2023-04-24T03:29:43;9.30;99.90
17992;DHT22;9121;50.926;5.340;2023-04-24T03:32:10;9.30;99.90
17992;DHT22;9121;50.926;5.340;2023-04-24T03:34:37;9.30;99.90
17992;DHT22;9121;50.926;5.340;2023-04-24T03:37:04;9.30;99.90
17992;DHT22;9121;50.926;5.340;2023-04-24T03:39:31;9.30;99.90
17992;DHT22;9121;50.926;5.340;2023-04-24T03:41:59;9.30;99.90
17992;DHT22;9121;50.926;5.340;2023-04-24T03:44:26;9.30;99.90
17992;DHT22;9121;50.926;5.340;2023-04-24T03:46:53;9.30;99.90
17992;DHT22;9121;50.926;5.340;2023-04-24T03:49:20;9.30;99.90
17992;DHT22;9121;50.926;5.340;2023-04-24T03:51:47;9.30;99.90
17992;DHT22;9121;50.926;5.340;2023-04-24T03:54:14;9.30;99.90
17992;DHT22;9121;50.926;5.340;2023-04-24T03:56:41;9.20;99.90
17992;DHT22;9121;50.926;5.340;2023-04-24T03:59:09;9.20;99.90
17992;DHT22;9121;50.926;5.340;2023-04-24T04:01:36;9.30;99.90
17992;DHT22;9121;50.926;5.340;2023-04-24T04:04:05;9.30;99.90
17992;DHT22;9121;50.926;5.340;2023-04-24T04:06:32;9.20;99.90
17992;DHT22;9121;50.926;5.340;2023-04-24T04:08:59;9.20;99.90
17992;DHT22;9121;50.926;5.340;2023-04-24T04:11:26;9.20;99.90
17992;DHT22;9121;50.926;5.340;2023-04-24T04:13:53;9.20;99.90
17992;DHT22;9121;50.926;5.340;2023-04-24T04:16:21;9.20;99.90
17992;DHT22;9121;50.926;5.340;2023-04-24T04:18:48;9.20;99.90
17992;DHT22;9121;50.926;5.340;2023-04-24T04:21:15;9.20;99.90
17992;DHT22;9121;50.926;5.340;2023-04-24T04:23:42;9.20;99.90
17992;DHT22;9121;50.926;5.340;2023-04-24T04:26:09;9.10;99.90
17992;DHT22;9121;50.926;5.340;2023-04-24T04:28:36;9.00;99.90
17992;DHT22;9121;50.926;5.340;2023-04-24T04:31:03;8.90;99.90
17992;DHT22;9121;50.926;5.340;2023-04-24T04:33:31;8.90;99.90
17992;DHT22;9121;50.926;5.340;2023-04-24T04:35:58;8.80;99.90
17992;DHT22;9121;50.926;5.340;2023-04-24T04:38:25;8.70;99.90
17992;DHT22;9121;50.926;5.340;2023-04-24T04:40:55;8.70;99.90
17992;DHT22;9121;50.926;5.340;2023-04-24T04:43:23;8.70;99.90
17992;DHT22;9121;50.926;5.340;2023-04-24T04:45:50;8.70;99.90
17992;DHT22;9121;50.926;5.340;2023-04-24T04:48:18;8.70;99.90
17992;DHT22;9121;50.926;5.340;2023-04-24T04:50:46;8.70;99.90
17992;DHT22;9121;50.926;5.340;2023-04-24T04:53:13;8.70;99.90
17992;DHT22;9121;50.926;5.340;2023-04-24T04:55:40;8.60;99.90
17992;DHT22;9121;50.926;5.340;2023-04-24T04:58:07;8.60;99.90
17992;DHT22;9121;50.926;5.340;2023-04-24T05:00:34;8.50;99.90
17992;DHT22;9121;50.926;5.340;2023-04-24T05:03:03;8.60;99.90
17992;DHT22;9121;50.926;5.340;2023-04-24T05:05:30;8.60;99.90
17992;DHT22;9121;50.926;5.340;2023-04-24T05:07:58;8.60;99.90
17992;DHT22;9121;50.926;5.340;2023-04-24T05:10:25;8.60;99.90
17992;DHT22;9121;50.926;5.340;2023-04-24T05:12:52;8.70;99.90
17992;DHT22;9121;50.926;5.340;2023-04-24T05:15:18;8.80;99.90
17992;DHT22;9121;50.926;5.340;2023-04-24T05:17:45;8.80;99.90
17992;DHT22;9121;50.926;5.340;2023-04-24T05:20:12;8.80;99.90
17992;DHT22;9121;50.926;5.340;2023-04-24T05:22:40;8.80;99.90
17992;DHT22;9121;50.926;5.340;2023-04-24T05:25:09;8.90;99.90
17992;DHT22;9121;50.926;5.340;2023-04-24T05:27:36;8.90;99.90
17992;DHT22;9121;50.926;5.340;2023-04-24T05:30:03;8.80;99.90
17992;DHT22;9121;50.926;5.340;2023-04-24T05:32:30;8.90;99.90
17992;DHT22;9121;50.926;5.340;2023-04-24T05:34:57;8.90;99.90
17992;DHT22;9121;50.926;5.340;2023-04-24T05:37:24;8.90;99.90
17992;DHT22;9121;50.926;5.340;2023-04-24T05:39:52;8.90;99.90
17992;DHT22;9121;50.926;5.340;2023-04-24T05:42:20;9.00;99.90
17992;DHT22;9121;50.926;5.340;2023-04-24T05:44:47;9.00;99.90
17992;DHT22;9121;50.926;5.340;2023-04-24T05:47:14;9.00;99.90
17992;DHT22;9121;50.926;5.340;2023-04-24T05:49:41;8.90;99.90
17992;DHT22;9121;50.926;5.340;2023-04-24T05:52:08;8.90;99.90
17992;DHT22;9121;50.926;5.340;2023-04-24T05:54:35;8.70;99.90
17992;DHT22;9121;50.926;5.340;2023-04-24T05:57:02;8.70;99.90
17992;DHT22;9121;50.926;5.340;2023-04-24T05:59:35;8.70;99.90
17992;DHT22;9121;50.926;5.340;2023-04-24T06:02:02;8.70;99.90
17992;DHT22;9121;50.926;5.340;2023-04-24T06:04:29;8.60;99.90
17992;DHT22;9121;50.926;5.340;2023-04-24T06:06:56;8.60;99.90
17992;DHT22;9121;50.926;5.340;2023-04-24T06:09:23;8.60;99.90
17992;DHT22;9121;50.926;5.340;2023-04-24T06:11:50;8.50;99.90
17992;DHT22;9121;50.926;5.340;2023-04-24T06:14:18;8.50;99.90
17992;DHT22;9121;50.926;5.340;2023-04-24T06:16:46;8.50;99.90
17992;DHT22;9121;50.926;5.340;2023-04-24T06:19:13;8.60;99.90
17992;DHT22;9121;50.926;5.340;2023-04-24T06:21:40;8.60;99.90
17992;DHT22;9121;50.926;5.340;2023-04-24T06:24:07;8.60;99.90
17992;DHT22;9121;50.926;5.340;2023-04-24T06:26:34;8.50;99.90
17992;DHT22;9121;50.926;5.340;2023-04-24T06:29:01;8.50;99.90
17992;DHT22;9121;50.926;5.340;2023-04-24T06:31:28;8.50;99.90
17992;DHT22;9121;50.926;5.340;2023-04-24T06:33:57;8.40;99.90
17992;DHT22;9121;50.926;5.340;2023-04-24T06:36:24;8.40;99.90
17992;DHT22;9121;50.926;5.340;2023-04-24T06:38:50;8.50;99.90
17992;DHT22;9121;50.926;5.340;2023-04-24T06:41:17;8.50;99.90
17992;DHT22;9121;50.926;5.340;2023-04-24T06:43:44;8.50;99.90
17992;DHT22;9121;50.926;5.340;2023-04-24T06:46:11;8.50;99.90
17992;DHT22;9121;50.926;5.340;2023-04-24T06:48:39;8.50;99.90
17992;DHT22;9121;50.926;5.340;2023-04-24T06:51:07;8.40;99.90
17992;DHT22;9121;50.926;5.340;2023-04-24T06:53:34;8.40;99.90
17992;DHT22;9121;50.926;5.340;2023-04-24T06:56:01;8.40;99.90
17992;DHT22;9121;50.926;5.340;2023-04-24T06:58:30;8.40;99.90
17992;DHT22;9121;50.926;5.340;2023-04-24T07:00:57;8.40;99.90
17992;DHT22;9121;50.926;5.340;2023-04-24T07:03:24;8.40;99.90
17992;DHT22;9121;50.926;5.340;2023-04-24T07:05:51;8.40;99.90
17992;DHT22;9121;50.926;5.340;2023-04-24T07:08:21;8.40;99.90
17992;DHT22;9121;50.926;5.340;2023-04-24T07:10:49;8.40;99.90
17992;DHT22;9121;50.926;5.340;2023-04-24T07:13:17;8.40;99.90
17992;DHT22;9121;50.926;5.340;2023-04-24T07:15:44;8.50;99.90
17992;DHT22;9121;50.926;5.340;2023-04-24T07:18:11;8.60;99.90
17992;DHT22;9121;50.926;5.340;2023-04-24T07:20:39;8.60;99.90
17992;DHT22;9121;50.926;5.340;2023-04-24T07:23:06;8.70;99.90
17992;DHT22;9121;50.926;5.340;2023-04-24T07:25:35;8.80;99.90
17992;DHT22;9121;50.926;5.340;2023-04-24T07:28:02;8.80;99.90
17992;DHT22;9121;50.926;5.340;2023-04-24T07:30:30;8.90;99.90
17992;DHT22;9121;50.926;5.340;2023-04-24T07:32:58;8.90;99.90
17992;DHT22;9121;50.926;5.340;2023-04-24T07:35:25;8.90;99.90
17992;DHT22;9121;50.926;5.340;2023-04-24T07:37:53;8.90;99.90
17992;DHT22;9121;50.926;5.340;2023-04-24T07:40:20;8.90;99.90
17992;DHT22;9121;50.926;5.340;2023-04-24T07:42:49;8.90;99.90
17992;DHT22;9121;50.926;5.340;2023-04-24T07:45:16;9.00;99.90
17992;DHT22;9121;50.926;5.340;2023-04-24T07:47:43;9.00;99.90
17992;DHT22;9121;50.926;5.340;2023-04-24T07:50:11;9.00;99.90
17992;DHT22;9121;50.926;5.340;2023-04-24T07:52:38;9.00;99.90
17992;DHT22;9121;50.926;5.340;2023-04-24T07:55:06;8.90;99.90
17992;DHT22;9121;50.926;5.340;2023-04-24T07:57:33;8.90;99.90
17992;DHT22;9121;50.926;5.340;2023-04-24T08:00:02;8.90;99.90
17992;DHT22;9121;50.926;5.340;2023-04-24T08:02:29;8.90;99.90
17992;DHT22;9121;50.926;5.340;2023-04-24T08:04:56;8.90;99.90
17992;DHT22;9121;50.926;5.340;2023-04-24T08:07:23;9.00;99.90
17992;DHT22;9121;50.926;5.340;2023-04-24T08:09:50;9.00;99.90
17992;DHT22;9121;50.926;5.340;2023-04-24T08:12:17;8.90;99.90
17992;DHT22;9121;50.926;5.340;2023-04-24T08:14:44;8.90;99.90
17992;DHT22;9121;50.926;5.340;2023-04-24T08:17:12;9.00;99.90
17992;DHT22;9121;50.926;5.340;2023-04-24T08:19:40;8.90;99.90
17992;DHT22;9121;50.926;5.340;2023-04-24T08:22:08;8.90;99.90
17992;DHT22;9121;50.926;5.340;2023-04-24T08:24:35;8.90;99.90
17992;DHT22;9121;50.926;5.340;2023-04-24T08:27:03;8.90;99.90
17992;DHT22;9121;50.926;5.340;2023-04-24T08:29:30;9.00;99.90
17992;DHT22;9121;50.926;5.340;2023-04-24T08:31:57;9.20;99.90
17992;DHT22;9121;50.926;5.340;2023-04-24T08:34:25;9.20;99.90
17992;DHT22;9121;50.926;5.340;2023-04-24T08:36:52;9.20;99.90
17992;DHT22;9121;50.926;5.340;2023-04-24T08:39:19;9.30;99.90
17992;DHT22;9121;50.926;5.340;2023-04-24T08:41:48;9.50;99.90
17992;DHT22;9121;50.926;5.340;2023-04-24T08:44:16;9.70;99.90
17992;DHT22;9121;50.926;5.340;2023-04-24T08:46:43;9.70;99.90
17992;DHT22;9121;50.926;5.340;2023-04-24T08:49:14;9.70;99.90
17992;DHT22;9121;50.926;5.340;2023-04-24T08:51:44;9.80;99.90
17992;DHT22;9121;50.926;5.340;2023-04-24T08:54:12;10.00;99.90
17992;DHT22;9121;50.926;5.340;2023-04-24T08:56:40;10.10;99.90
17992;DHT22;9121;50.926;5.340;2023-04-24T08:59:10;10.30;99.90
17992;DHT22;9121;50.926;5.340;2023-04-24T09:01:38;10.10;99.90
17992;DHT22;9121;50.926;5.340;2023-04-24T09:04:08;10.00;99.90
17992;DHT22;9121;50.926;5.340;2023-04-24T09:06:36;10.00;99.90
17992;DHT22;9121;50.926;5.340;2023-04-24T09:09:05;9.80;99.90
17992;DHT22;9121;50.926;5.340;2023-04-24T09:11:32;9.90;99.90
17992;DHT22;9121;50.926;5.340;2023-04-24T09:13:59;9.90;99.90
17992;DHT22;9121;50.926;5.340;2023-04-24T09:16:27;9.80;99.90
17992;DHT22;9121;50.926;5.340;2023-04-24T09:18:55;9.70;99.90
17992;DHT22;9121;50.926;5.340;2023-04-24T09:21:22;9.80;99.90
17992;DHT22;9121;50.926;5.340;2023-04-24T09:23:58;9.80;99.90
17992;DHT22;9121;50.926;5.340;2023-04-24T09:26:29;9.60;99.90
17992;DHT22;9121;50.926;5.340;2023-04-24T09:28:58;9.70;99.90
17992;DHT22;9121;50.926;5.340;2023-04-24T09:31:27;9.80;99.90
17992;DHT22;9121;50.926;5.340;2023-04-24T09:33:56;10.10;99.90
17992;DHT22;9121;50.926;5.340;2023-04-24T09:36:31;10.20;99.90
17992;DHT22;9121;50.926;5.340;2023-04-24T09:39:00;10.50;99.90
17992;DHT22;9121;50.926;5.340;2023-04-24T09:41:28;10.80;99.90
17992;DHT22;9121;50.926;5.340;2023-04-24T09:43:56;10.90;99.90
17992;DHT22;9121;50.926;5.340;2023-04-24T09:46:29;10.90;99.90
17992;DHT22;9121;50.926;5.340;2023-04-24T09:48:57;11.10;99.90
17992;DHT22;9121;50.926;5.340;2023-04-24T09:51:35;11.20;99.90
17992;DHT22;9121;50.926;5.340;2023-04-24T09:54:03;11.20;99.90
17992;DHT22;9121;50.926;5.340;2023-04-24T09:56:34;11.30;99.90
17992;DHT22;9121;50.926;5.340;2023-04-24T09:59:07;11.40;99.90
17992;DHT22;9121;50.926;5.340;2023-04-24T10:01:34;11.30;99.90
17992;DHT22;9121;50.926;5.340;2023-04-24T10:04:01;11.30;99.90
17992;DHT22;9121;50.926;5.340;2023-04-24T10:06:33;11.40;99.90
17992;DHT22;9121;50.926;5.340;2023-04-24T10:09:01;11.60;99.90
17992;DHT22;9121;50.926;5.340;2023-04-24T10:11:30;11.80;98.30
17992;DHT22;9121;50.926;5.340;2023-04-24T10:13:58;11.90;93.20
17992;DHT22;9121;50.926;5.340;2023-04-24T10:16:26;11.90;72.60
17992;DHT22;9121;50.926;5.340;2023-04-24T10:18:54;12.00;92.80
17992;DHT22;9121;50.926;5.340;2023-04-24T10:21:21;12.20;78.90
17992;DHT22;9121;50.926;5.340;2023-04-24T10:23:49;12.10;65.90
17992;DHT22;9121;50.926;5.340;2023-04-24T10:26:17;12.10;3.80
17992;DHT22;9121;50.926;5.340;2023-04-24T10:28:45;11.90;1.00
17992;DHT22;9121;50.926;5.340;2023-04-24T10:31:14;11.80;1.00
17992;DHT22;9121;50.926;5.340;2023-04-24T10:33:42;11.80;1.00
17992;DHT22;9121;50.926;5.340;2023-04-24T10:36:10;12.10;7.20
17992;DHT22;9121;50.926;5.340;2023-04-24T10:38:39;12.20;1.00
17992;DHT22;9121;50.926;5.340;2023-04-24T10:41:07;12.30;1.00
17992;DHT22;9121;50.926;5.340;2023-04-24T10:43:36;12.60;1.00
17992;DHT22;9121;50.926;5.340;2023-04-24T10:46:04;12.50;1.00
17992;DHT22;9121;50.926;5.340;2023-04-24T10:48:33;12.40;1.00
17992;DHT22;9121;50.926;5.340;2023-04-24T10:51:01;12.40;1.00
17992;DHT22;9121;50.926;5.340;2023-04-24T10:53:29;12.30;1.00
17992;DHT22;9121;50.926;5.340;2023-04-24T10:56:03;12.20;1.00
17992;DHT22;9121;50.926;5.340;2023-04-24T10:58:41;12.10;1.00
17992;DHT22;9121;50.926;5.340;2023-04-24T11:01:23;12.00;10.70
17992;DHT22;9121;50.926;5.340;2023-04-24T11:03:55;12.10;22.30
17992;DHT22;9121;50.926;5.340;2023-04-24T11:06:28;12.10;28.00
17992;DHT22;9121;50.926;5.340;2023-04-24T11:09:02;12.30;5.70
17992;DHT22;9121;50.926;5.340;2023-04-24T11:11:30;12.20;6.20
17992;DHT22;9121;50.926;5.340;2023-04-24T11:14:05;12.10;1.00
17992;DHT22;9121;50.926;5.340;2023-04-24T11:16:34;12.00;1.00
17992;DHT22;9121;50.926;5.340;2023-04-24T11:19:04;12.00;1.00
17992;DHT22;9121;50.926;5.340;2023-04-24T11:21:32;12.00;1.00
17992;DHT22;9121;50.926;5.340;2023-04-24T11:24:29;11.90;1.00
17992;DHT22;9121;50.926;5.340;2023-04-24T11:26:58;12.00;1.00
17992;DHT22;9121;50.926;5.340;2023-04-24T11:29:44;12.10;1.00
17992;DHT22;9121;50.926;5.340;2023-04-24T11:32:24;12.20;1.00
17992;DHT22;9121;50.926;5.340;2023-04-24T11:34:54;12.20;1.00
17992;DHT22;9121;50.926;5.340;2023-04-24T11:37:22;12.20;1.00
17992;DHT22;9121;50.926;5.340;2023-04-24T11:39:54;12.10;1.00
17992;DHT22;9121;50.926;5.340;2023-04-24T11:42:22;12.20;1.00
17992;DHT22;9121;50.926;5.340;2023-04-24T11:44:50;12.60;1.00
17992;DHT22;9121;50.926;5.340;2023-04-24T11:47:18;13.00;1.00
17992;DHT22;9121;50.926;5.340;2023-04-24T11:49:46;13.50;1.00
17992;DHT22;9121;50.926;5.340;2023-04-24T11:52:17;13.70;1.00
17992;DHT22;9121;50.926;5.340;2023-04-24T11:54:48;14.00;99.90
17992;DHT22;9121;50.926;5.340;2023-04-24T11:57:15;13.90;99.90
17992;DHT22;9121;50.926;5.340;2023-04-24T11:59:42;13.50;1.00
17992;DHT22;9121;50.926;5.340;2023-04-24T12:02:20;13.30;1.00
17992;DHT22;9121;50.926;5.340;2023-04-24T12:04:47;13.20;1.00
17992;DHT22;9121;50.926;5.340;2023-04-24T12:07:14;13.20;1.00
17992;DHT22;9121;50.926;5.340;2023-04-24T12:09:43;13.30;1.00
17992;DHT22;9121;50.926;5.340;2023-04-24T12:12:11;13.30;1.00
17992;DHT22;9121;50.926;5.340;2023-04-24T12:14:47;13.70;1.00
17992;DHT22;9121;50.926;5.340;2023-04-24T12:17:14;13.70;40.60
17992;DHT22;9121;50.926;5.340;2023-04-24T12:19:45;13.40;99.90
17992;DHT22;9121;50.926;5.340;2023-04-24T12:22:13;13.30;1.00
17992;DHT22;9121;50.926;5.340;2023-04-24T12:24:57;13.40;1.00
17992;DHT22;9121;50.926;5.340;2023-04-24T12:27:26;13.60;1.00
17992;DHT22;9121;50.926;5.340;2023-04-24T12:29:53;14.10;99.90
17992;DHT22;9121;50.926;5.340;2023-04-24T12:32:22;14.60;1.00
17992;DHT22;9121;50.926;5.340;2023-04-24T12:34:49;14.80;99.90
17992;DHT22;9121;50.926;5.340;2023-04-24T12:37:17;15.00;99.90
17992;DHT22;9121;50.926;5.340;2023-04-24T12:40:03;14.80;99.90
17992;DHT22;9121;50.926;5.340;2023-04-24T12:42:30;14.50;99.90
17992;DHT22;9121;50.926;5.340;2023-04-24T12:44:58;14.30;1.00
17992;DHT22;9121;50.926;5.340;2023-04-24T12:47:27;14.20;1.00
17992;DHT22;9121;50.926;5.340;2023-04-24T12:49:54;14.10;1.00
17992;DHT22;9121;50.926;5.340;2023-04-24T12:52:21;14.40;1.00
17992;DHT22;9121;50.926;5.340;2023-04-24T12:54:49;14.20;99.90
17992;DHT22;9121;50.926;5.340;2023-04-24T12:57:18;14.20;1.00
17992;DHT22;9121;50.926;5.340;2023-04-24T12:59:45;13.90;99.90
17992;DHT22;9121;50.926;5.340;2023-04-24T13:02:12;13.90;1.00
17992;DHT22;9121;50.926;5.340;2023-04-24T13:04:40;14.10;1.00
17992;DHT22;9121;50.926;5.340;2023-04-24T13:07:07;13.90;1.00
17992;DHT22;9121;50.926;5.340;2023-04-24T13:09:34;13.70;99.90
17992;DHT22;9121;50.926;5.340;2023-04-24T13:12:02;13.80;1.00
17992;DHT22;9121;50.926;5.340;2023-04-24T13:14:30;14.20;99.90
17992;DHT22;9121;50.926;5.340;2023-04-24T13:16:57;14.50;77.90
17992;DHT22;9121;50.926;5.340;2023-04-24T13:19:24;14.50;1.00
17992;DHT22;9121;50.926;5.340;2023-04-24T13:21:52;14.70;1.00
17992;DHT22;9121;50.926;5.340;2023-04-24T13:24:19;15.10;99.90
17992;DHT22;9121;50.926;5.340;2023-04-24T13:26:46;15.10;1.90
17992;DHT22;9121;50.926;5.340;2023-04-24T13:29:13;14.80;99.90
17992;DHT22;9121;50.926;5.340;2023-04-24T13:31:42;14.70;99.90
17992;DHT22;9121;50.926;5.340;2023-04-24T13:34:09;14.90;1.00
17992;DHT22;9121;50.926;5.340;2023-04-24T13:36:36;15.70;15.00
17992;DHT22;9121;50.926;5.340;2023-04-24T13:39:03;16.40;1.00
17992;DHT22;9121;50.926;5.340;2023-04-24T13:41:33;16.90;99.90
17992;DHT22;9121;50.926;5.340;2023-04-24T13:44:00;16.70;1.00
17992;DHT22;9121;50.926;5.340;2023-04-24T13:46:28;16.60;1.00
17992;DHT22;9121;50.926;5.340;2023-04-24T13:48:56;17.40;99.90
17992;DHT22;9121;50.926;5.340;2023-04-24T13:51:23;17.30;1.00
17992;DHT22;9121;50.926;5.340;2023-04-24T13:53:52;16.50;99.90
17992;DHT22;9121;50.926;5.340;2023-04-24T13:56:19;15.80;5.10
17992;DHT22;9121;50.926;5.340;2023-04-24T13:58:46;15.60;99.90
17992;DHT22;9121;50.926;5.340;2023-04-24T14:01:13;15.50;1.00
17992;DHT22;9121;50.926;5.340;2023-04-24T14:03:41;15.60;1.00
17992;DHT22;9121;50.926;5.340;2023-04-24T14:06:10;15.90;99.90
17992;DHT22;9121;50.926;5.340;2023-04-24T14:08:37;16.00;99.90
17992;DHT22;9121;50.926;5.340;2023-04-24T14:11:04;16.40;1.00
17992;DHT22;9121;50.926;5.340;2023-04-24T14:13:31;16.40;99.90
17992;DHT22;9121;50.926;5.340;2023-04-24T14:15:58;16.30;99.90
17992;DHT22;9121;50.926;5.340;2023-04-24T14:18:25;15.90;99.90
17992;DHT22;9121;50.926;5.340;2023-04-24T14:20:52;15.60;43.80
17992;DHT22;9121;50.926;5.340;2023-04-24T14:23:21;16.40;84.70
17992;DHT22;9121;50.926;5.340;2023-04-24T14:25:48;17.50;99.90
17992;DHT22;9121;50.926;5.340;2023-04-24T14:28:17;17.90;99.90
17992;DHT22;9121;50.926;5.340;2023-04-24T14:30:44;18.20;99.90
17992;DHT22;9121;50.926;5.340;2023-04-24T14:33:11;17.60;99.90
17992;DHT22;9121;50.926;5.340;2023-04-24T14:35:39;17.10;99.90
17992;DHT22;9121;50.926;5.340;2023-04-24T14:38:07;16.80;1.00
17992;DHT22;9121;50.926;5.340;2023-04-24T14:40:36;16.40;1.00
17992;DHT22;9121;50.926;5.340;2023-04-24T14:43:03;16.00;1.00
17992;DHT22;9121;50.926;5.340;2023-04-24T14:45:30;15.90;99.90
17992;DHT22;9121;50.926;5.340;2023-04-24T14:47:57;16.40;69.20
17992;DHT22;9121;50.926;5.340;2023-04-24T14:50:24;16.80;1.00
17992;DHT22;9121;50.926;5.340;2023-04-24T14:52:53;16.90;1.00
17992;DHT22;9121;50.926;5.340;2023-04-24T14:55:20;17.20;99.90
17992;DHT22;9121;50.926;5.340;2023-04-24T14:57:49;16.90;1.00
17992;DHT22;9121;50.926;5.340;2023-04-24T15:00:17;16.50;1.00
17992;DHT22;9121;50.926;5.340;2023-04-24T15:02:45;16.00;1.00
17992;DHT22;9121;50.926;5.340;2023-04-24T15:05:12;15.90;1.00
17992;DHT22;9121;50.926;5.340;2023-04-24T15:07:39;15.60;1.00
17992;DHT22;9121;50.926;5.340;2023-04-24T15:10:08;15.40;99.90
17992;DHT22;9121;50.926;5.340;2023-04-24T15:12:35;15.60;17.50
17992;DHT22;9121;50.926;5.340;2023-04-24T15:15:04;16.20;99.90
17992;DHT22;9121;50.926;5.340;2023-04-24T15:17:31;16.10;1.00
17992;DHT22;9121;50.926;5.340;2023-04-24T15:19:58;15.80;1.00
17992;DHT22;9121;50.926;5.340;2023-04-24T15:22:26;15.60;97.80
17992;DHT22;9121;50.926;5.340;2023-04-24T15:24:53;15.80;1.00
17992;DHT22;9121;50.926;5.340;2023-04-24T15:27:20;16.20;99.90
17992;DHT22;9121;50.926;5.340;2023-04-24T15:29:47;16.50;99.90
17992;DHT22;9121;50.926;5.340;2023-04-24T15:32:15;16.70;1.00
17992;DHT22;9121;50.926;5.340;2023-04-24T15:34:42;17.30;99.90
17992;DHT22;9121;50.926;5.340;2023-04-24T15:37:09;17.50;1.00
17992;DHT22;9121;50.926;5.340;2023-04-24T15:39:36;17.10;1.00
17992;DHT22;9121;50.926;5.340;2023-04-24T15:42:04;16.50;46.60
17992;DHT22;9121;50.926;5.340;2023-04-24T15:44:31;16.20;99.90
17992;DHT22;9121;50.926;5.340;2023-04-24T15:47:00;15.60;99.90
17992;DHT22;9121;50.926;5.340;2023-04-24T15:49:28;15.20;1.00
17992;DHT22;9121;50.926;5.340;2023-04-24T15:51:55;14.80;99.90
17992;DHT22;9121;50.926;5.340;2023-04-24T15:54:22;14.60;1.00
17992;DHT22;9121;50.926;5.340;2023-04-24T15:56:49;14.60;99.90
17992;DHT22;9121;50.926;5.340;2023-04-24T15:59:16;14.50;99.90
17992;DHT22;9121;50.926;5.340;2023-04-24T16:01:44;14.40;1.00